sensor_id;sensor_type;location;lat;lon;timestamp;P1;durP1;ratioP1;P2;durP2;ratioP2
81026;SDS011;70506;49.320;8.446;2024-03-02T00:00:21;10.60;;;5.18;;
81026;SDS011;70506;49.320;8.446;2024-03-02T00:02:48;11.75;;;5.50;;
81026;SDS011;70506;49.320;8.446;2024-03-02T00:05:18;12.88;;;5.05;;
81026;SDS011;70506;49.320;8.446;2024-03-02T00:07:45;14.10;;;4.32;;
81026;SDS011;70506;49.320;8.446;2024-03-02T00:10:22;19.08;;;5.25;;
81026;SDS011;70506;49.320;8.446;2024-03-02T00:12:50;13.98;;;5.60;;
81026;SDS011;70506;49.320;8.446;2024-03-02T00:15:39;12.23;;;4.78;;
81026;SDS011;70506;49.320;8.446;2024-03-02T00:18:12;9.32;;;4.28;;
81026;SDS011;70506;49.320;8.446;2024-03-02T00:20:45;7.82;;;4.75;;
81026;SDS011;70506;49.320;8.446;2024-03-02T00:23:10;12.07;;;4.75;;
81026;SDS011;70506;49.320;8.446;2024-03-02T00:25:41;11.20;;;5.20;;
81026;SDS011;70506;49.320;8.446;2024-03-02T00:28:13;10.27;;;5.70;;
81026;SDS011;70506;49.320;8.446;2024-03-02T00:33:30;11.10;;;5.57;;
81026;SDS011;70506;49.320;8.446;2024-03-02T00:35:57;13.30;;;5.35;;
81026;SDS011;70506;49.320;8.446;2024-03-02T00:38:24;14.68;;;5.70;;
81026;SDS011;70506;49.320;8.446;2024-03-02T00:40:50;10.43;;;4.78;;
81026;SDS011;70506;49.320;8.446;2024-03-02T00:46:02;10.77;;;4.72;;
81026;SDS011;70506;49.320;8.446;2024-03-02T00:48:28;12.05;;;4.65;;
81026;SDS011;70506;49.320;8.446;2024-03-02T00:50:56;9.15;;;4.97;;
81026;SDS011;70506;49.320;8.446;2024-03-02T00:53:23;10.55;;;5.53;;
81026;SDS011;70506;49.320;8.446;2024-03-02T00:55:52;10.68;;;5.05;;
81026;SDS011;70506;49.320;8.446;2024-03-02T00:58:17;12.30;;;5.68;;
81026;SDS011;70506;49.320;8.446;2024-03-02T01:00:42;12.05;;;4.82;;
81026;SDS011;70506;49.320;8.446;2024-03-02T01:03:08;13.37;;;5.07;;
81026;SDS011;70506;49.320;8.446;2024-03-02T01:05:33;7.80;;;4.90;;
81026;SDS011;70506;49.320;8.446;2024-03-02T01:07:59;11.68;;;5.47;;
81026;SDS011;70506;49.320;8.446;2024-03-02T01:10:25;11.93;;;5.20;;
81026;SDS011;70506;49.320;8.446;2024-03-02T01:12:53;10.77;;;5.13;;
81026;SDS011;70506;49.320;8.446;2024-03-02T01:15:18;10.47;;;5.53;;
81026;SDS011;70506;49.320;8.446;2024-03-02T01:17:44;13.05;;;5.43;;
81026;SDS011;70506;49.320;8.446;2024-03-02T01:20:09;9.47;;;4.77;;
81026;SDS011;70506;49.320;8.446;2024-03-02T01:22:35;12.98;;;5.65;;
81026;SDS011;70506;49.320;8.446;2024-03-02T01:25:00;10.38;;;5.55;;
81026;SDS011;70506;49.320;8.446;2024-03-02T01:27:26;15.10;;;5.57;;
81026;SDS011;70506;49.320;8.446;2024-03-02T01:29:51;12.05;;;4.55;;
81026;SDS011;70506;49.320;8.446;2024-03-02T01:32:17;12.37;;;5.50;;
81026;SDS011;70506;49.320;8.446;2024-03-02T01:34:42;11.07;;;5.22;;
81026;SDS011;70506;49.320;8.446;2024-03-02T01:37:08;13.88;;;6.47;;
81026;SDS011;70506;49.320;8.446;2024-03-02T01:39:33;12.93;;;5.50;;
81026;SDS011;70506;49.320;8.446;2024-03-02T01:41:58;12.50;;;5.40;;
81026;SDS011;70506;49.320;8.446;2024-03-02T01:44:24;11.20;;;5.93;;
81026;SDS011;70506;49.320;8.446;2024-03-02T01:46:49;12.53;;;5.77;;
81026;SDS011;70506;49.320;8.446;2024-03-02T01:49:15;12.10;;;4.97;;
81026;SDS011;70506;49.320;8.446;2024-03-02T01:51:41;15.73;;;6.07;;
81026;SDS011;70506;49.320;8.446;2024-03-02T01:54:06;13.20;;;6.00;;
81026;SDS011;70506;49.320;8.446;2024-03-02T01:56:31;12.70;;;5.13;;
81026;SDS011;70506;49.320;8.446;2024-03-02T01:58:57;10.27;;;4.50;;
81026;SDS011;70506;49.320;8.446;2024-03-02T02:01:22;9.17;;;4.67;;
81026;SDS011;70506;49.320;8.446;2024-03-02T02:03:47;9.70;;;5.03;;
81026;SDS011;70506;49.320;8.446;2024-03-02T02:06:12;12.77;;;5.30;;
81026;SDS011;70506;49.320;8.446;2024-03-02T02:08:38;11.27;;;4.47;;
81026;SDS011;70506;49.320;8.446;2024-03-02T02:11:03;14.97;;;6.03;;
81026;SDS011;70506;49.320;8.446;2024-03-02T02:13:28;12.77;;;5.23;;
81026;SDS011;70506;49.320;8.446;2024-03-02T02:15:54;10.97;;;4.97;;
81026;SDS011;70506;49.320;8.446;2024-03-02T02:18:19;12.90;;;5.23;;
81026;SDS011;70506;49.320;8.446;2024-03-02T02:20:44;8.97;;;4.53;;
81026;SDS011;70506;49.320;8.446;2024-03-02T02:23:09;11.73;;;4.77;;
81026;SDS011;70506;49.320;8.446;2024-03-02T02:25:35;12.43;;;5.13;;
81026;SDS011;70506;49.320;8.446;2024-03-02T02:28:00;16.27;;;5.65;;
81026;SDS011;70506;49.320;8.446;2024-03-02T02:30:30;12.63;;;5.25;;
81026;SDS011;70506;49.320;8.446;2024-03-02T02:32:57;11.38;;;4.80;;
81026;SDS011;70506;49.320;8.446;2024-03-02T02:35:23;12.25;;;5.03;;
81026;SDS011;70506;49.320;8.446;2024-03-02T02:37:52;12.80;;;4.90;;
81026;SDS011;70506;49.320;8.446;2024-03-02T02:40:17;13.25;;;5.18;;
81026;SDS011;70506;49.320;8.446;2024-03-02T02:42:46;10.55;;;4.82;;
81026;SDS011;70506;49.320;8.446;2024-03-02T02:45:11;13.50;;;4.32;;
81026;SDS011;70506;49.320;8.446;2024-03-02T02:47:38;7.00;;;4.10;;
81026;SDS011;70506;49.320;8.446;2024-03-02T02:50:03;9.95;;;3.95;;
81026;SDS011;70506;49.320;8.446;2024-03-02T02:52:33;10.00;;;5.03;;
81026;SDS011;70506;49.320;8.446;2024-03-02T02:54:59;7.95;;;4.90;;
81026;SDS011;70506;49.320;8.446;2024-03-02T02:57:24;6.65;;;4.15;;
81026;SDS011;70506;49.320;8.446;2024-03-02T02:59:49;15.40;;;4.67;;
81026;SDS011;70506;49.320;8.446;2024-03-02T03:02:15;8.93;;;4.50;;
81026;SDS011;70506;49.320;8.446;2024-03-02T03:04:40;12.40;;;5.43;;
81026;SDS011;70506;49.320;8.446;2024-03-02T03:07:05;9.53;;;4.33;;
81026;SDS011;70506;49.320;8.446;2024-03-02T03:09:31;8.33;;;4.10;;
81026;SDS011;70506;49.320;8.446;2024-03-02T03:11:56;10.57;;;4.80;;
81026;SDS011;70506;49.320;8.446;2024-03-02T03:14:21;13.23;;;5.03;;
81026;SDS011;70506;49.320;8.446;2024-03-02T03:16:47;9.13;;;4.87;;
81026;SDS011;70506;49.320;8.446;2024-03-02T03:19:13;11.68;;;5.57;;
81026;SDS011;70506;49.320;8.446;2024-03-02T03:21:38;8.63;;;4.77;;
81026;SDS011;70506;49.320;8.446;2024-03-02T03:24:04;9.90;;;4.33;;
81026;SDS011;70506;49.320;8.446;2024-03-02T03:26:29;10.23;;;5.43;;
81026;SDS011;70506;49.320;8.446;2024-03-02T03:28:55;8.17;;;4.23;;
81026;SDS011;70506;49.320;8.446;2024-03-02T03:31:20;10.57;;;5.13;;
81026;SDS011;70506;49.320;8.446;2024-03-02T03:33:45;11.33;;;4.97;;
81026;SDS011;70506;49.320;8.446;2024-03-02T03:36:10;11.90;;;4.67;;
81026;SDS011;70506;49.320;8.446;2024-03-02T03:38:36;8.03;;;4.37;;
81026;SDS011;70506;49.320;8.446;2024-03-02T03:41:01;8.77;;;4.60;;
81026;SDS011;70506;49.320;8.446;2024-03-02T03:43:26;6.93;;;3.77;;
81026;SDS011;70506;49.320;8.446;2024-03-02T03:45:52;5.07;;;3.60;;
81026;SDS011;70506;49.320;8.446;2024-03-02T03:48:17;10.13;;;4.30;;
81026;SDS011;70506;49.320;8.446;2024-03-02T03:50:42;12.05;;;4.10;;
81026;SDS011;70506;49.320;8.446;2024-03-02T03:53:08;6.23;;;3.87;;
81026;SDS011;70506;49.320;8.446;2024-03-02T03:55:33;9.65;;;4.90;;
81026;SDS011;70506;49.320;8.446;2024-03-02T03:57:58;9.10;;;4.85;;
81026;SDS011;70506;49.320;8.446;2024-03-02T04:00:24;8.30;;;4.60;;
81026;SDS011;70506;49.320;8.446;2024-03-02T04:02:49;6.97;;;4.55;;
81026;SDS011;70506;49.320;8.446;2024-03-02T04:05:14;9.57;;;4.37;;
81026;SDS011;70506;49.320;8.446;2024-03-02T04:07:40;7.40;;;4.13;;
81026;SDS011;70506;49.320;8.446;2024-03-02T04:10:08;8.80;;;4.10;;
81026;SDS011;70506;49.320;8.446;2024-03-02T04:12:35;11.05;;;5.05;;
81026;SDS011;70506;49.320;8.446;2024-03-02T04:15:01;12.55;;;4.43;;
81026;SDS011;70506;49.320;8.446;2024-03-02T04:17:28;12.48;;;4.05;;
81026;SDS011;70506;49.320;8.446;2024-03-02T04:19:54;8.88;;;4.32;;
81026;SDS011;70506;49.320;8.446;2024-03-02T04:22:19;8.57;;;4.50;;
81026;SDS011;70506;49.320;8.446;2024-03-02T04:24:44;7.80;;;3.27;;
81026;SDS011;70506;49.320;8.446;2024-03-02T04:27:10;9.15;;;3.45;;
81026;SDS011;70506;49.320;8.446;2024-03-02T04:29:35;8.23;;;3.70;;
81026;SDS011;70506;49.320;8.446;2024-03-02T04:32:00;8.93;;;3.90;;
81026;SDS011;70506;49.320;8.446;2024-03-02T04:34:26;11.52;;;4.15;;
81026;SDS011;70506;49.320;8.446;2024-03-02T04:36:51;8.17;;;4.03;;
81026;SDS011;70506;49.320;8.446;2024-03-02T04:39:16;9.55;;;4.03;;
81026;SDS011;70506;49.320;8.446;2024-03-02T04:41:42;9.23;;;3.92;;
81026;SDS011;70506;49.320;8.446;2024-03-02T04:44:07;6.73;;;3.40;;
81026;SDS011;70506;49.320;8.446;2024-03-02T04:46:33;6.95;;;3.58;;
81026;SDS011;70506;49.320;8.446;2024-03-02T04:48:58;10.80;;;4.25;;
81026;SDS011;70506;49.320;8.446;2024-03-02T04:51:23;9.33;;;3.73;;
81026;SDS011;70506;49.320;8.446;2024-03-02T04:53:49;10.03;;;3.57;;
81026;SDS011;70506;49.320;8.446;2024-03-02T04:56:14;7.87;;;4.40;;
81026;SDS011;70506;49.320;8.446;2024-03-02T04:58:51;11.48;;;3.72;;
81026;SDS011;70506;49.320;8.446;2024-03-02T05:01:16;8.07;;;3.13;;
81026;SDS011;70506;49.320;8.446;2024-03-02T05:03:42;7.07;;;3.30;;
81026;SDS011;70506;49.320;8.446;2024-03-02T05:06:07;6.75;;;3.45;;
81026;SDS011;70506;49.320;8.446;2024-03-02T05:08:33;4.35;;;2.67;;
81026;SDS011;70506;49.320;8.446;2024-03-02T05:10:59;8.82;;;3.83;;
81026;SDS011;70506;49.320;8.446;2024-03-02T05:13:44;9.65;;;3.92;;
81026;SDS011;70506;49.320;8.446;2024-03-02T05:16:09;6.60;;;3.13;;
81026;SDS011;70506;49.320;8.446;2024-03-02T05:18:34;7.50;;;3.60;;
81026;SDS011;70506;49.320;8.446;2024-03-02T05:21:03;6.63;;;3.03;;
81026;SDS011;70506;49.320;8.446;2024-03-02T05:23:28;11.05;;;4.18;;
81026;SDS011;70506;49.320;8.446;2024-03-02T05:25:53;7.10;;;3.93;;
81026;SDS011;70506;49.320;8.446;2024-03-02T05:28:19;9.65;;;4.35;;
81026;SDS011;70506;49.320;8.446;2024-03-02T05:30:44;7.30;;;3.78;;
81026;SDS011;70506;49.320;8.446;2024-03-02T05:33:09;7.43;;;3.60;;
81026;SDS011;70506;49.320;8.446;2024-03-02T05:35:35;12.33;;;5.03;;
81026;SDS011;70506;49.320;8.446;2024-03-02T05:38:00;10.17;;;4.40;;
81026;SDS011;70506;49.320;8.446;2024-03-02T05:40:25;11.90;;;4.70;;
81026;SDS011;70506;49.320;8.446;2024-03-02T05:42:51;7.97;;;3.97;;
81026;SDS011;70506;49.320;8.446;2024-03-02T05:45:16;8.30;;;4.67;;
81026;SDS011;70506;49.320;8.446;2024-03-02T05:47:41;7.35;;;3.55;;
81026;SDS011;70506;49.320;8.446;2024-03-02T05:50:07;6.43;;;3.23;;
81026;SDS011;70506;49.320;8.446;2024-03-02T05:52:32;9.82;;;4.38;;
81026;SDS011;70506;49.320;8.446;2024-03-02T05:54:57;8.97;;;4.13;;
81026;SDS011;70506;49.320;8.446;2024-03-02T05:57:23;12.87;;;5.13;;
81026;SDS011;70506;49.320;8.446;2024-03-02T06:00:04;9.68;;;4.88;;
81026;SDS011;70506;49.320;8.446;2024-03-02T06:02:33;7.18;;;4.18;;
81026;SDS011;70506;49.320;8.446;2024-03-02T06:04:58;13.23;;;4.75;;
81026;SDS011;70506;49.320;8.446;2024-03-02T06:07:23;8.67;;;3.57;;
81026;SDS011;70506;49.320;8.446;2024-03-02T06:09:48;11.30;;;4.43;;
81026;SDS011;70506;49.320;8.446;2024-03-02T06:12:16;8.18;;;3.75;;
81026;SDS011;70506;49.320;8.446;2024-03-02T06:14:41;9.70;;;4.10;;
81026;SDS011;70506;49.320;8.446;2024-03-02T06:17:06;9.10;;;4.53;;
81026;SDS011;70506;49.320;8.446;2024-03-02T06:19:32;11.47;;;4.57;;
81026;SDS011;70506;49.320;8.446;2024-03-02T06:21:58;14.25;;;4.45;;
81026;SDS011;70506;49.320;8.446;2024-03-02T06:24:23;9.53;;;4.67;;
81026;SDS011;70506;49.320;8.446;2024-03-02T06:26:48;11.33;;;6.00;;
81026;SDS011;70506;49.320;8.446;2024-03-02T06:29:13;9.13;;;4.83;;
81026;SDS011;70506;49.320;8.446;2024-03-02T06:31:39;9.47;;;5.00;;
81026;SDS011;70506;49.320;8.446;2024-03-02T06:34:04;9.50;;;4.63;;
81026;SDS011;70506;49.320;8.446;2024-03-02T06:36:29;15.63;;;5.93;;
81026;SDS011;70506;49.320;8.446;2024-03-02T06:38:55;8.05;;;3.92;;
81026;SDS011;70506;49.320;8.446;2024-03-02T06:41:20;9.47;;;4.53;;
81026;SDS011;70506;49.320;8.446;2024-03-02T06:43:45;7.90;;;4.57;;
81026;SDS011;70506;49.320;8.446;2024-03-02T06:46:10;10.20;;;4.37;;
81026;SDS011;70506;49.320;8.446;2024-03-02T06:48:39;12.88;;;4.93;;
81026;SDS011;70506;49.320;8.446;2024-03-02T06:51:04;11.67;;;4.20;;
81026;SDS011;70506;49.320;8.446;2024-03-02T06:53:30;14.00;;;5.83;;
81026;SDS011;70506;49.320;8.446;2024-03-02T06:55:56;14.13;;;5.13;;
81026;SDS011;70506;49.320;8.446;2024-03-02T06:58:21;13.20;;;5.40;;
81026;SDS011;70506;49.320;8.446;2024-03-02T07:00:47;11.80;;;4.90;;
81026;SDS011;70506;49.320;8.446;2024-03-02T07:03:17;9.88;;;5.18;;
81026;SDS011;70506;49.320;8.446;2024-03-02T07:05:42;10.20;;;5.23;;
81026;SDS011;70506;49.320;8.446;2024-03-02T07:08:07;12.77;;;4.97;;
81026;SDS011;70506;49.320;8.446;2024-03-02T07:10:33;13.20;;;4.78;;
81026;SDS011;70506;49.320;8.446;2024-03-02T07:12:58;10.67;;;6.27;;
81026;SDS011;70506;49.320;8.446;2024-03-02T07:15:24;10.73;;;5.60;;
81026;SDS011;70506;49.320;8.446;2024-03-02T07:17:52;11.00;;;5.10;;
81026;SDS011;70506;49.320;8.446;2024-03-02T07:20:17;9.13;;;4.93;;
81026;SDS011;70506;49.320;8.446;2024-03-02T07:22:42;9.63;;;4.53;;
81026;SDS011;70506;49.320;8.446;2024-03-02T07:25:08;8.00;;;4.57;;
81026;SDS011;70506;49.320;8.446;2024-03-02T07:27:33;11.13;;;5.18;;
81026;SDS011;70506;49.320;8.446;2024-03-02T07:30:00;11.02;;;5.22;;
81026;SDS011;70506;49.320;8.446;2024-03-02T07:34:52;10.73;;;5.37;;
81026;SDS011;70506;49.320;8.446;2024-03-02T07:37:17;11.17;;;6.10;;
81026;SDS011;70506;49.320;8.446;2024-03-02T07:39:44;15.13;;;6.93;;
81026;SDS011;70506;49.320;8.446;2024-03-02T07:42:10;17.27;;;6.60;;
81026;SDS011;70506;49.320;8.446;2024-03-02T07:44:35;12.07;;;5.55;;
81026;SDS011;70506;49.320;8.446;2024-03-02T07:47:00;17.52;;;6.22;;
81026;SDS011;70506;49.320;8.446;2024-03-02T07:49:26;16.42;;;7.80;;
81026;SDS011;70506;49.320;8.446;2024-03-02T07:51:51;15.40;;;6.60;;
81026;SDS011;70506;49.320;8.446;2024-03-02T07:54:16;14.03;;;6.40;;
81026;SDS011;70506;49.320;8.446;2024-03-02T07:56:42;14.17;;;6.00;;
81026;SDS011;70506;49.320;8.446;2024-03-02T07:59:07;16.83;;;7.30;;
81026;SDS011;70506;49.320;8.446;2024-03-02T08:01:33;15.65;;;7.07;;
81026;SDS011;70506;49.320;8.446;2024-03-02T08:03:59;14.27;;;7.35;;
81026;SDS011;70506;49.320;8.446;2024-03-02T08:06:25;15.25;;;7.15;;
81026;SDS011;70506;49.320;8.446;2024-03-02T08:08:55;12.38;;;5.65;;
81026;SDS011;70506;49.320;8.446;2024-03-02T08:11:21;19.90;;;7.65;;
81026;SDS011;70506;49.320;8.446;2024-03-02T08:13:47;14.27;;;6.53;;
81026;SDS011;70506;49.320;8.446;2024-03-02T08:16:17;9.63;;;5.28;;
81026;SDS011;70506;49.320;8.446;2024-03-02T08:18:45;11.68;;;6.00;;
81026;SDS011;70506;49.320;8.446;2024-03-02T08:21:13;12.02;;;5.50;;
81026;SDS011;70506;49.320;8.446;2024-03-02T08:23:38;13.55;;;5.72;;
81026;SDS011;70506;49.320;8.446;2024-03-02T08:26:05;12.77;;;5.22;;
81026;SDS011;70506;49.320;8.446;2024-03-02T08:28:31;9.43;;;4.55;;
81026;SDS011;70506;49.320;8.446;2024-03-02T08:30:57;10.20;;;4.70;;
81026;SDS011;70506;49.320;8.446;2024-03-02T08:33:22;11.80;;;5.00;;
81026;SDS011;70506;49.320;8.446;2024-03-02T08:35:48;8.20;;;4.03;;
81026;SDS011;70506;49.320;8.446;2024-03-02T08:38:13;8.67;;;4.20;;
81026;SDS011;70506;49.320;8.446;2024-03-02T08:40:38;13.77;;;4.40;;
81026;SDS011;70506;49.320;8.446;2024-03-02T08:43:04;11.37;;;4.20;;
81026;SDS011;70506;49.320;8.446;2024-03-02T08:45:29;10.23;;;4.07;;
81026;SDS011;70506;49.320;8.446;2024-03-02T08:47:54;11.43;;;4.40;;
81026;SDS011;70506;49.320;8.446;2024-03-02T08:50:20;9.47;;;4.53;;
81026;SDS011;70506;49.320;8.446;2024-03-02T08:52:45;9.45;;;4.43;;
81026;SDS011;70506;49.320;8.446;2024-03-02T08:55:10;8.60;;;4.27;;
81026;SDS011;70506;49.320;8.446;2024-03-02T08:57:36;8.52;;;3.88;;
81026;SDS011;70506;49.320;8.446;2024-03-02T09:00:01;9.18;;;3.83;;
81026;SDS011;70506;49.320;8.446;2024-03-02T09:02:27;7.65;;;3.65;;
81026;SDS011;70506;49.320;8.446;2024-03-02T09:04:53;9.00;;;3.80;;
81026;SDS011;70506;49.320;8.446;2024-03-02T09:07:18;8.20;;;3.63;;
81026;SDS011;70506;49.320;8.446;2024-03-02T09:09:43;7.63;;;3.80;;
81026;SDS011;70506;49.320;8.446;2024-03-02T09:12:09;7.68;;;3.58;;
81026;SDS011;70506;49.320;8.446;2024-03-02T09:17:01;7.18;;;3.42;;
81026;SDS011;70506;49.320;8.446;2024-03-02T09:19:27;7.28;;;3.50;;
81026;SDS011;70506;49.320;8.446;2024-03-02T09:21:52;7.17;;;3.20;;
81026;SDS011;70506;49.320;8.446;2024-03-02T09:24:20;7.25;;;2.90;;
81026;SDS011;70506;49.320;8.446;2024-03-02T09:26:45;8.27;;;3.50;;
81026;SDS011;70506;49.320;8.446;2024-03-02T09:29:11;6.72;;;3.47;;
81026;SDS011;70506;49.320;8.446;2024-03-02T09:31:40;8.63;;;3.13;;
81026;SDS011;70506;49.320;8.446;2024-03-02T09:34:06;6.45;;;3.55;;
81026;SDS011;70506;49.320;8.446;2024-03-02T09:36:31;5.95;;;3.22;;
81026;SDS011;70506;49.320;8.446;2024-03-02T09:38:56;5.73;;;2.83;;
81026;SDS011;70506;49.320;8.446;2024-03-02T09:41:22;5.85;;;3.13;;
81026;SDS011;70506;49.320;8.446;2024-03-02T09:43:48;6.70;;;3.42;;
81026;SDS011;70506;49.320;8.446;2024-03-02T09:46:14;7.93;;;3.22;;
81026;SDS011;70506;49.320;8.446;2024-03-02T09:48:40;6.57;;;2.97;;
81026;SDS011;70506;49.320;8.446;2024-03-02T09:51:05;7.47;;;3.47;;
81026;SDS011;70506;49.320;8.446;2024-03-02T09:53:31;7.68;;;3.60;;
81026;SDS011;70506;49.320;8.446;2024-03-02T09:55:59;6.10;;;2.97;;
81026;SDS011;70506;49.320;8.446;2024-03-02T10:00:49;6.33;;;3.47;;
81026;SDS011;70506;49.320;8.446;2024-03-02T10:03:15;5.63;;;2.97;;
81026;SDS011;70506;49.320;8.446;2024-03-02T10:05:41;6.80;;;2.75;;
81026;SDS011;70506;49.320;8.446;2024-03-02T10:08:07;7.70;;;3.53;;
81026;SDS011;70506;49.320;8.446;2024-03-02T10:13:12;7.38;;;3.10;;
81026;SDS011;70506;49.320;8.446;2024-03-02T10:15:38;5.38;;;3.05;;
81026;SDS011;70506;49.320;8.446;2024-03-02T10:18:10;6.78;;;3.17;;
81026;SDS011;70506;49.320;8.446;2024-03-02T10:20:36;6.70;;;3.55;;
81026;SDS011;70506;49.320;8.446;2024-03-02T10:23:14;4.78;;;2.72;;
81026;SDS011;70506;49.320;8.446;2024-03-02T10:25:41;6.35;;;3.30;;
81026;SDS011;70506;49.320;8.446;2024-03-02T10:30:35;7.87;;;3.63;;
81026;SDS011;70506;49.320;8.446;2024-03-02T10:33:01;6.90;;;3.15;;
81026;SDS011;70506;49.320;8.446;2024-03-02T10:35:27;6.07;;;3.20;;
81026;SDS011;70506;49.320;8.446;2024-03-02T10:40:20;6.60;;;2.97;;
81026;SDS011;70506;49.320;8.446;2024-03-02T10:42:46;6.43;;;3.08;;
81026;SDS011;70506;49.320;8.446;2024-03-02T10:47:37;6.72;;;2.80;;
81026;SDS011;70506;49.320;8.446;2024-03-02T10:52:31;5.68;;;3.15;;
81026;SDS011;70506;49.320;8.446;2024-03-02T10:57:21;4.57;;;2.83;;
81026;SDS011;70506;49.320;8.446;2024-03-02T10:59:53;5.88;;;2.80;;
81026;SDS011;70506;49.320;8.446;2024-03-02T11:02:22;5.53;;;2.90;;
81026;SDS011;70506;49.320;8.446;2024-03-02T11:04:49;5.18;;;2.92;;
81026;SDS011;70506;49.320;8.446;2024-03-02T11:07:15;6.45;;;3.13;;
81026;SDS011;70506;49.320;8.446;2024-03-02T11:09:45;6.22;;;3.47;;
81026;SDS011;70506;49.320;8.446;2024-03-02T11:12:19;4.75;;;3.05;;
81026;SDS011;70506;49.320;8.446;2024-03-02T11:14:48;5.82;;;3.05;;
81026;SDS011;70506;49.320;8.446;2024-03-02T11:17:16;9.15;;;3.55;;
81026;SDS011;70506;49.320;8.446;2024-03-02T11:19:42;6.95;;;3.60;;
81026;SDS011;70506;49.320;8.446;2024-03-02T11:22:08;6.85;;;3.17;;
81026;SDS011;70506;49.320;8.446;2024-03-02T11:24:34;4.55;;;2.70;;
81026;SDS011;70506;49.320;8.446;2024-03-02T11:27:00;6.85;;;3.17;;
81026;SDS011;70506;49.320;8.446;2024-03-02T11:32:06;5.13;;;3.08;;
81026;SDS011;70506;49.320;8.446;2024-03-02T11:34:39;7.18;;;3.08;;
81026;SDS011;70506;49.320;8.446;2024-03-02T11:37:10;6.47;;;2.95;;
81026;SDS011;70506;49.320;8.446;2024-03-02T11:39:35;4.70;;;2.65;;
81026;SDS011;70506;49.320;8.446;2024-03-02T11:42:00;5.20;;;3.00;;
81026;SDS011;70506;49.320;8.446;2024-03-02T11:44:27;4.47;;;2.67;;
81026;SDS011;70506;49.320;8.446;2024-03-02T11:46:59;4.85;;;2.70;;
81026;SDS011;70506;49.320;8.446;2024-03-02T11:49:37;4.43;;;2.25;;
81026;SDS011;70506;49.320;8.446;2024-03-02T11:52:10;5.45;;;2.30;;
81026;SDS011;70506;49.320;8.446;2024-03-02T11:54:37;3.53;;;2.20;;
81026;SDS011;70506;49.320;8.446;2024-03-02T11:57:11;4.18;;;2.45;;
81026;SDS011;70506;49.320;8.446;2024-03-02T11:59:37;4.80;;;2.38;;
81026;SDS011;70506;49.320;8.446;2024-03-02T12:02:02;5.10;;;2.57;;
81026;SDS011;70506;49.320;8.446;2024-03-02T12:04:27;5.05;;;2.10;;
81026;SDS011;70506;49.320;8.446;2024-03-02T12:06:58;6.10;;;2.20;;
81026;SDS011;70506;49.320;8.446;2024-03-02T12:09:27;4.07;;;2.20;;
81026;SDS011;70506;49.320;8.446;2024-03-02T12:12:03;4.72;;;2.10;;
81026;SDS011;70506;49.320;8.446;2024-03-02T12:14:31;5.32;;;2.25;;
81026;SDS011;70506;49.320;8.446;2024-03-02T12:16:57;4.30;;;1.73;;
81026;SDS011;70506;49.320;8.446;2024-03-02T12:19:24;3.08;;;1.52;;
81026;SDS011;70506;49.320;8.446;2024-03-02T12:21:50;3.63;;;1.70;;
81026;SDS011;70506;49.320;8.446;2024-03-02T12:24:15;4.72;;;1.70;;
81026;SDS011;70506;49.320;8.446;2024-03-02T12:26:40;2.88;;;1.52;;
81026;SDS011;70506;49.320;8.446;2024-03-02T12:29:06;3.90;;;2.08;;
81026;SDS011;70506;49.320;8.446;2024-03-02T12:31:32;5.80;;;1.98;;
81026;SDS011;70506;49.320;8.446;2024-03-02T12:33:57;5.72;;;2.25;;
81026;SDS011;70506;49.320;8.446;2024-03-02T12:36:23;4.05;;;1.98;;
81026;SDS011;70506;49.320;8.446;2024-03-02T12:38:48;3.03;;;1.50;;
81026;SDS011;70506;49.320;8.446;2024-03-02T12:41:15;4.90;;;2.22;;
81026;SDS011;70506;49.320;8.446;2024-03-02T12:43:41;3.40;;;1.90;;
81026;SDS011;70506;49.320;8.446;2024-03-02T12:46:06;3.67;;;2.00;;
81026;SDS011;70506;49.320;8.446;2024-03-02T12:48:32;6.27;;;2.23;;
81026;SDS011;70506;49.320;8.446;2024-03-02T12:50:58;4.72;;;2.47;;
81026;SDS011;70506;49.320;8.446;2024-03-02T12:53:23;3.72;;;2.08;;
81026;SDS011;70506;49.320;8.446;2024-03-02T12:55:49;3.78;;;1.52;;
81026;SDS011;70506;49.320;8.446;2024-03-02T12:58:21;2.60;;;1.77;;
81026;SDS011;70506;49.320;8.446;2024-03-02T13:00:47;3.05;;;1.90;;
81026;SDS011;70506;49.320;8.446;2024-03-02T13:03:12;2.25;;;1.40;;
81026;SDS011;70506;49.320;8.446;2024-03-02T13:05:38;3.17;;;1.60;;
81026;SDS011;70506;49.320;8.446;2024-03-02T13:08:04;4.38;;;1.50;;
81026;SDS011;70506;49.320;8.446;2024-03-02T13:10:32;2.90;;;1.60;;
81026;SDS011;70506;49.320;8.446;2024-03-02T13:12:57;2.63;;;1.40;;
81026;SDS011;70506;49.320;8.446;2024-03-02T13:15:23;3.47;;;1.70;;
81026;SDS011;70506;49.320;8.446;2024-03-02T13:17:48;3.15;;;1.75;;
81026;SDS011;70506;49.320;8.446;2024-03-02T13:20:14;2.83;;;1.77;;
81026;SDS011;70506;49.320;8.446;2024-03-02T13:22:39;3.17;;;2.10;;
81026;SDS011;70506;49.320;8.446;2024-03-02T13:25:05;2.63;;;1.63;;
81026;SDS011;70506;49.320;8.446;2024-03-02T13:27:31;3.05;;;1.42;;
81026;SDS011;70506;49.320;8.446;2024-03-02T13:30:00;2.72;;;1.58;;
81026;SDS011;70506;49.320;8.446;2024-03-02T13:32:26;3.55;;;1.55;;
81026;SDS011;70506;49.320;8.446;2024-03-02T13:34:51;3.43;;;1.77;;
81026;SDS011;70506;49.320;8.446;2024-03-02T13:37:17;2.88;;;1.63;;
81026;SDS011;70506;49.320;8.446;2024-03-02T13:39:42;2.85;;;1.67;;
81026;SDS011;70506;49.320;8.446;2024-03-02T13:42:11;3.35;;;1.52;;
81026;SDS011;70506;49.320;8.446;2024-03-02T13:44:40;3.40;;;1.85;;
81026;SDS011;70506;49.320;8.446;2024-03-02T13:47:06;4.20;;;1.88;;
81026;SDS011;70506;49.320;8.446;2024-03-02T13:49:32;2.37;;;1.77;;
81026;SDS011;70506;49.320;8.446;2024-03-02T13:52:06;3.30;;;1.98;;
81026;SDS011;70506;49.320;8.446;2024-03-02T13:54:38;4.25;;;1.90;;
81026;SDS011;70506;49.320;8.446;2024-03-02T13:57:04;3.47;;;1.90;;
81026;SDS011;70506;49.320;8.446;2024-03-02T13:59:30;3.95;;;1.65;;
81026;SDS011;70506;49.320;8.446;2024-03-02T14:01:55;2.92;;;1.55;;
81026;SDS011;70506;49.320;8.446;2024-03-02T14:04:21;2.72;;;1.73;;
81026;SDS011;70506;49.320;8.446;2024-03-02T14:06:46;4.77;;;1.70;;
81026;SDS011;70506;49.320;8.446;2024-03-02T14:09:11;2.97;;;1.92;;
81026;SDS011;70506;49.320;8.446;2024-03-02T14:11:37;3.40;;;1.93;;
81026;SDS011;70506;49.320;8.446;2024-03-02T14:14:02;3.73;;;2.00;;
81026;SDS011;70506;49.320;8.446;2024-03-02T14:16:28;4.78;;;1.70;;
81026;SDS011;70506;49.320;8.446;2024-03-02T14:18:53;3.47;;;1.70;;
81026;SDS011;70506;49.320;8.446;2024-03-02T14:21:18;2.83;;;1.60;;
81026;SDS011;70506;49.320;8.446;2024-03-02T14:23:43;3.70;;;1.50;;
81026;SDS011;70506;49.320;8.446;2024-03-02T14:26:09;2.47;;;1.47;;
81026;SDS011;70506;49.320;8.446;2024-03-02T14:28:34;6.33;;;1.40;;
81026;SDS011;70506;49.320;8.446;2024-03-02T14:30:59;2.70;;;1.13;;
81026;SDS011;70506;49.320;8.446;2024-03-02T14:33:26;1.73;;;1.20;;
81026;SDS011;70506;49.320;8.446;2024-03-02T14:35:51;2.50;;;1.08;;
81026;SDS011;70506;49.320;8.446;2024-03-02T14:38:17;2.50;;;1.20;;
81026;SDS011;70506;49.320;8.446;2024-03-02T14:40:42;2.72;;;1.30;;
81026;SDS011;70506;49.320;8.446;2024-03-02T14:43:08;1.77;;;1.23;;
81026;SDS011;70506;49.320;8.446;2024-03-02T14:45:33;2.83;;;1.50;;
81026;SDS011;70506;49.320;8.446;2024-03-02T14:47:58;1.77;;;1.10;;
81026;SDS011;70506;49.320;8.446;2024-03-02T14:50:25;1.80;;;1.00;;
81026;SDS011;70506;49.320;8.446;2024-03-02T14:52:51;2.97;;;1.00;;
81026;SDS011;70506;49.320;8.446;2024-03-02T14:55:16;1.77;;;1.10;;
81026;SDS011;70506;49.320;8.446;2024-03-02T14:57:42;1.30;;;0.90;;
81026;SDS011;70506;49.320;8.446;2024-03-02T15:00:08;2.45;;;1.00;;
81026;SDS011;70506;49.320;8.446;2024-03-02T15:02:36;1.73;;;0.98;;
81026;SDS011;70506;49.320;8.446;2024-03-02T15:07:26;2.40;;;0.93;;
81026;SDS011;70506;49.320;8.446;2024-03-02T15:12:17;1.10;;;0.70;;